createdAt,value
2019-06-07T00:01:21.172Z,78.60
2019-06-07T00:03:51.857Z,79.20
2019-06-07T00:06:25.629Z,78.50
2019-06-07T00:08:53.113Z,78.60
2019-06-07T00:11:22.792Z,78.60
2019-06-07T00:13:52.390Z,79.60
2019-06-07T00:18:57.225Z,79.60
2019-06-07T00:22:12.898Z,80.60
2019-06-07T00:23:58.143Z,81.70
2019-06-07T00:26:27.895Z,79.70
2019-06-07T00:28:57.548Z,80.10
2019-06-07T00:31:27.277Z,79.80
2019-06-07T00:33:57.003Z,80.50
2019-06-07T00:36:26.671Z,80.00
2019-06-07T00:38:56.223Z,80.50
2019-06-07T00:41:26.101Z,80.80
2019-06-07T00:43:55.747Z,80.10
2019-06-07T00:46:25.553Z,80.30
2019-06-07T00:48:55.762Z,79.80
2019-06-07T00:51:25.573Z,80.20
2019-06-07T00:53:55.264Z,82.60
2019-06-07T00:56:25.288Z,81.70
2019-06-07T00:59:10.916Z,81.00
2019-06-07T01:01:26.322Z,79.90
2019-06-07T01:03:56.249Z,79.80
2019-06-07T01:06:25.893Z,82.60
2019-06-07T01:08:55.563Z,83.60
2019-06-07T01:11:26.160Z,84.40
2019-06-07T01:13:55.960Z,84.80
2019-06-07T01:16:26.410Z,82.80
2019-06-07T01:18:56.308Z,81.10
2019-06-07T01:21:29.705Z,82.30
2019-06-07T01:24:11.639Z,83.60
2019-06-07T01:26:30.252Z,86.30
2019-06-07T01:29:00.264Z,84.20
2019-06-07T01:31:31.482Z,83.00
2019-06-07T01:34:01.283Z,82.90
2019-06-07T01:36:31.290Z,84.70
2019-06-07T01:39:01.005Z,84.50
2019-06-07T01:41:31.011Z,83.70
2019-06-07T01:44:00.691Z,84.20
2019-06-07T01:46:30.943Z,86.70
2019-06-07T01:49:00.700Z,87.50
2019-06-07T01:51:30.709Z,85.20
2019-06-07T01:54:48.560Z,83.60
2019-06-07T01:56:32.538Z,84.10
2019-06-07T01:59:02.256Z,84.80
2019-06-07T02:01:35.215Z,85.20
2019-06-07T02:04:03.574Z,85.60
2019-06-07T02:06:33.911Z,85.20
2019-06-07T02:09:04.532Z,84.70
2019-06-07T02:11:34.542Z,84.40
2019-06-07T02:14:07.843Z,84.30
2019-06-07T02:16:37.479Z,84.90
2019-06-07T02:19:07.451Z,84.60
2019-06-07T02:21:37.469Z,84.70
2019-06-07T02:24:07.182Z,85.30
2019-06-07T02:26:36.814Z,85.90
2019-06-07T02:29:06.619Z,85.90
2019-06-07T02:31:39.614Z,85.10
2019-06-07T02:34:07.710Z,85.70
2019-06-07T02:36:41.506Z,85.10
2019-06-07T02:39:09.052Z,84.20
2019-06-07T02:41:40.459Z,83.40
2019-06-07T02:44:10.385Z,83.60
2019-06-07T02:46:49.133Z,83.70
2019-06-07T02:49:11.545Z,83.90
2019-06-07T02:51:42.136Z,84.50
2019-06-07T02:54:12.010Z,83.90
2019-06-07T02:56:56.273Z,85.70
2019-06-07T02:59:12.945Z,87.00
2019-06-07T03:01:42.920Z,86.50
2019-06-07T03:04:14.577Z,86.30
2019-06-07T03:06:45.566Z,85.20
2019-06-07T03:09:15.228Z,84.80
2019-06-07T03:11:46.818Z,85.40
2019-06-07T03:14:19.617Z,86.80
2019-06-07T03:16:52.330Z,87.00
2019-06-07T03:19:26.395Z,87.00
2019-06-07T03:21:56.167Z,86.80
2019-06-07T03:24:29.596Z,86.20
2019-06-07T03:29:30.406Z,85.80
2019-06-07T03:32:00.687Z,85.70
2019-06-07T03:34:34.245Z,86.50
2019-06-07T03:37:01.734Z,86.30
2019-06-07T03:39:31.502Z,85.80
2019-06-07T03:42:06.247Z,85.50
2019-06-07T03:44:35.860Z,85.30
2019-06-07T03:47:04.463Z,85.20
2019-06-07T03:49:36.487Z,85.70
2019-06-07T03:52:05.586Z,85.40
2019-06-07T03:54:38.446Z,83.50
2019-06-07T03:57:06.672Z,80.30
2019-06-07T03:59:39.576Z,78.40
2019-06-07T04:02:07.830Z,77.50
2019-06-07T04:04:38.564Z,74.90
2019-06-07T04:07:08.706Z,71.90
2019-06-07T04:09:42.068Z,68.80
2019-06-07T04:12:10.576Z,66.20
2019-06-07T04:14:42.494Z,64.80
2019-06-07T04:17:11.801Z,64.20
2019-06-07T04:19:43.307Z,63.00
2019-06-07T04:22:12.771Z,62.30
2019-06-07T04:24:42.560Z,61.00
2019-06-07T04:27:12.308Z,59.90
2019-06-07T04:30:05.837Z,58.80
2019-06-07T04:32:13.577Z,59.40
2019-06-07T04:34:43.467Z,60.20
2019-06-07T04:37:14.170Z,59.00
2019-06-07T04:39:45.415Z,58.80
2019-06-07T04:42:18.114Z,58.20
2019-06-07T04:44:48.749Z,57.10
2019-06-07T04:47:20.526Z,56.70
2019-06-07T04:49:51.816Z,56.30
2019-06-07T04:52:21.738Z,55.20
2019-06-07T04:54:51.593Z,55.90
2019-06-07T04:57:21.397Z,56.60
2019-06-07T05:00:12.240Z,56.30
2019-06-07T05:02:22.691Z,56.10
2019-06-07T05:04:52.388Z,57.30
2019-06-07T05:07:22.159Z,56.40
2019-06-07T05:09:52.611Z,54.80
2019-06-07T05:12:22.330Z,53.60
2019-06-07T05:14:52.227Z,53.10
2019-06-07T05:17:23.156Z,52.20
2019-06-07T05:19:53.916Z,52.90
2019-06-07T05:22:24.528Z,52.80
2019-06-07T05:24:54.546Z,51.90
2019-06-07T05:27:24.446Z,52.70
2019-06-07T05:30:13.161Z,53.90
2019-06-07T05:32:29.086Z,53.40
2019-06-07T05:35:00.319Z,54.00
2019-06-07T05:37:33.536Z,51.70
2019-06-07T05:40:03.668Z,52.30
2019-06-07T05:42:40.216Z,53.40
2019-06-07T05:45:08.613Z,52.70
2019-06-07T05:47:44.379Z,52.10
2019-06-07T05:50:38.071Z,52.70
2019-06-07T05:52:46.801Z,54.40
2019-06-07T05:55:14.200Z,54.50
2019-06-07T05:57:49.165Z,55.50
2019-06-07T06:00:15.414Z,55.80
2019-06-07T06:03:04.193Z,57.30
2019-06-07T06:05:32.675Z,58.90
2019-06-07T06:07:50.905Z,59.40
2019-06-07T06:10:19.994Z,60.50
2019-06-07T06:12:51.881Z,60.90
2019-06-07T06:15:41.539Z,63.00
2019-06-07T06:18:54.755Z,64.20
2019-06-07T06:21:24.970Z,64.20
2019-06-07T06:23:54.987Z,62.00
2019-06-07T06:26:24.742Z,62.30
2019-06-07T06:28:54.821Z,61.60
2019-06-07T06:31:24.672Z,61.40
2019-06-07T06:33:56.289Z,60.80
2019-06-07T06:36:26.031Z,59.50
2019-06-07T06:38:57.894Z,58.90
2019-06-07T06:41:27.526Z,59.40
2019-06-07T06:43:57.968Z,58.20
2019-06-07T06:46:38.630Z,58.00
2019-06-07T06:48:59.619Z,57.50
2019-06-07T06:51:29.660Z,60.10
2019-06-07T06:53:59.620Z,60.90
2019-06-07T06:56:29.392Z,60.40
2019-06-07T06:59:34.124Z,62.20
2019-06-07T07:01:30.832Z,62.00
2019-06-07T07:04:12.445Z,63.40
2019-06-07T07:06:33.170Z,63.60
2019-06-07T07:09:03.497Z,63.00
2019-06-07T07:11:33.247Z,62.60
2019-06-07T07:14:03.154Z,63.60
2019-06-07T07:16:33.597Z,64.10
2019-06-07T07:19:03.148Z,64.50
2019-06-07T07:21:32.741Z,63.40
2019-06-07T07:24:20.572Z,62.20
2019-06-07T07:26:33.706Z,60.30
2019-06-07T07:29:03.500Z,63.50
2019-06-07T07:31:33.135Z,62.80
2019-06-07T07:36:39.230Z,58.40
2019-06-07T07:39:07.477Z,61.00
2019-06-07T07:41:37.256Z,63.10
2019-06-07T07:44:07.991Z,60.00
2019-06-07T07:46:38.520Z,58.40
2019-06-07T07:49:08.077Z,58.10
2019-06-07T07:51:37.673Z,57.40
2019-06-07T07:54:10.545Z,58.00
2019-06-07T07:56:39.244Z,57.70
2019-06-07T07:59:09.361Z,57.00
2019-06-07T08:01:39.157Z,57.20
2019-06-07T08:04:08.973Z,57.50
2019-06-07T08:06:38.926Z,58.20
2019-06-07T08:09:09.574Z,59.20
2019-06-07T08:11:39.241Z,59.30
2019-06-07T08:14:09.105Z,60.70
2019-06-07T08:16:39.067Z,62.90
2019-06-07T08:19:09.861Z,61.70
2019-06-07T08:21:39.702Z,60.80
2019-06-07T08:24:09.460Z,59.10
2019-06-07T08:26:39.192Z,60.00
2019-06-07T08:29:08.954Z,58.90
2019-06-07T08:31:38.693Z,58.60
2019-06-07T08:34:08.389Z,58.20
2019-06-07T08:36:42.386Z,57.30
2019-06-07T08:39:10.232Z,58.30
2019-06-07T08:41:53.705Z,59.20
2019-06-07T08:44:23.307Z,59.40
2019-06-07T08:46:42.535Z,58.60
2019-06-07T08:49:12.171Z,59.70
2019-06-07T08:51:41.921Z,59.90
2019-06-07T08:54:22.177Z,58.90
2019-06-07T08:56:43.717Z,61.90
2019-06-07T08:59:13.629Z,62.40
2019-06-07T09:01:43.263Z,60.80
2019-06-07T09:04:12.902Z,61.90
2019-06-07T09:09:14.389Z,59.70
2019-06-07T09:11:44.135Z,60.30
2019-06-07T09:14:13.795Z,59.60
2019-06-07T09:16:43.500Z,60.90
2019-06-07T09:19:13.123Z,62.70
2019-06-07T09:21:42.864Z,63.40
2019-06-07T09:24:12.472Z,63.60
2019-06-07T09:26:42.030Z,65.70
2019-06-07T09:29:12.692Z,65.20
2019-06-07T09:31:52.428Z,65.30
2019-06-07T09:34:15.290Z,65.30
2019-06-07T09:36:45.057Z,66.10
2019-06-07T09:39:14.847Z,66.20
2019-06-07T09:41:49.493Z,66.10
2019-06-07T09:44:24.598Z,64.70
2019-06-07T09:46:47.307Z,65.90
2019-06-07T09:49:30.573Z,65.30
2019-06-07T09:51:48.461Z,64.20
2019-06-07T09:56:49.994Z,67.60
2019-06-07T09:59:19.669Z,66.10
2019-06-07T10:01:49.614Z,66.20
2019-06-07T10:04:30.747Z,66.00
2019-06-07T10:06:50.978Z,65.10
2019-06-07T10:11:52.342Z,64.90
2019-06-07T10:14:22.092Z,65.60
2019-06-07T10:16:51.778Z,65.40
2019-06-07T10:19:21.571Z,65.50
2019-06-07T10:21:51.380Z,66.50
2019-06-07T10:24:20.936Z,64.80
2019-06-07T10:26:50.629Z,64.90
2019-06-07T10:29:20.242Z,66.80
2019-06-07T10:31:50.028Z,65.10
2019-06-07T10:34:19.727Z,66.40
2019-06-07T10:36:49.402Z,64.70
2019-06-07T10:39:19.093Z,62.90
2019-06-07T10:41:49.048Z,62.00
2019-06-07T10:44:18.728Z,62.40
2019-06-07T10:46:48.319Z,61.70
2019-06-07T10:49:18.028Z,61.50
2019-06-07T10:51:47.615Z,59.90
2019-06-07T10:54:27.944Z,60.10
2019-06-07T10:56:48.635Z,58.90
2019-06-07T10:59:18.252Z,59.00
2019-06-07T11:01:47.877Z,56.20
2019-06-07T11:04:17.501Z,56.60
2019-06-07T11:06:47.247Z,57.10
2019-06-07T11:09:16.936Z,56.60
2019-06-07T11:11:46.576Z,55.40
2019-06-07T11:14:16.189Z,55.10
2019-06-07T11:16:45.874Z,54.70
2019-06-07T11:19:17.778Z,54.40
2019-06-07T11:21:46.924Z,52.70
2019-06-07T11:24:24.269Z,54.60
2019-06-07T11:26:49.725Z,54.00
2019-06-07T11:29:19.397Z,55.30
2019-06-07T11:31:48.960Z,56.40
2019-06-07T11:34:18.913Z,53.50
2019-06-07T11:36:51.086Z,53.20
2019-06-07T11:39:20.221Z,52.20
2019-06-07T11:41:50.000Z,51.60
2019-06-07T11:44:19.748Z,51.40
2019-06-07T11:46:49.380Z,52.90
2019-06-07T11:49:20.283Z,53.20
2019-06-07T11:51:50.367Z,52.20
2019-06-07T11:54:20.547Z,51.80
2019-06-07T11:56:50.291Z,52.00
2019-06-07T11:59:20.028Z,50.30
2019-06-07T12:01:49.606Z,50.90
2019-06-07T12:04:32.513Z,52.00
2019-06-07T12:06:50.714Z,52.80
2019-06-07T12:09:20.384Z,50.70
2019-06-07T12:11:49.931Z,50.20
2019-06-07T12:14:19.514Z,51.10
2019-06-07T12:16:49.091Z,49.70
2019-06-07T12:19:19.763Z,50.50
2019-06-07T12:21:49.741Z,51.60
2019-06-07T12:24:21.159Z,50.10
2019-06-07T12:26:51.842Z,50.40
2019-06-07T12:29:21.603Z,49.70
2019-06-07T12:31:51.667Z,51.30
2019-06-07T12:34:21.664Z,50.30
2019-06-07T12:36:51.703Z,50.50
2019-06-07T12:39:22.246Z,51.30
2019-06-07T12:41:51.970Z,51.00
2019-06-07T12:44:22.845Z,50.50
2019-06-07T12:46:53.048Z,49.80
2019-06-07T12:49:23.572Z,50.40
2019-06-07T12:51:53.581Z,49.70
2019-06-07T12:54:23.869Z,49.80
2019-06-07T12:56:53.783Z,50.70
2019-06-07T12:59:24.466Z,49.60
2019-06-07T13:01:54.131Z,49.90
2019-06-07T13:04:24.967Z,52.30
2019-06-07T13:06:54.904Z,51.40
2019-06-07T13:09:24.613Z,50.80
2019-06-07T13:11:54.553Z,50.70
2019-06-07T13:14:24.346Z,52.60
2019-06-07T13:16:54.024Z,52.20
2019-06-07T13:19:24.357Z,52.00
2019-06-07T13:21:54.126Z,51.50
2019-06-07T13:24:25.158Z,52.30
2019-06-07T13:26:54.953Z,52.10
2019-06-07T13:29:25.145Z,53.90
2019-06-07T13:31:56.143Z,53.30
2019-06-07T13:34:25.979Z,52.40
2019-06-07T13:36:55.770Z,53.30
2019-06-07T13:39:27.605Z,51.90
2019-06-07T13:41:56.987Z,53.20
2019-06-07T13:44:26.837Z,52.30
2019-06-07T13:46:57.630Z,51.70
2019-06-07T13:49:27.952Z,52.90
2019-06-07T13:51:58.035Z,51.30
2019-06-07T13:54:27.922Z,51.30
2019-06-07T13:57:02.739Z,51.80
2019-06-07T13:59:29.352Z,52.00
2019-06-07T14:02:00.887Z,52.00
2019-06-07T14:04:31.822Z,52.80
2019-06-07T14:07:01.640Z,51.70
2019-06-07T14:09:31.468Z,53.50
2019-06-07T14:12:01.289Z,53.60
2019-06-07T14:14:31.065Z,53.70
2019-06-07T14:17:01.766Z,51.50
2019-06-07T14:19:31.525Z,53.00
2019-06-07T14:22:02.054Z,51.40
2019-06-07T14:24:31.783Z,51.30
2019-06-07T14:27:07.963Z,51.60
2019-06-07T14:29:41.211Z,52.90
2019-06-07T14:32:11.146Z,53.20
2019-06-07T14:34:41.129Z,51.90
2019-06-07T14:37:11.148Z,51.30
2019-06-07T14:39:41.269Z,51.80
2019-06-07T14:42:11.492Z,53.70
2019-06-07T14:44:41.353Z,53.20
2019-06-07T14:47:11.084Z,54.10
2019-06-07T14:49:40.828Z,53.70
2019-06-07T14:52:10.457Z,53.70
2019-06-07T14:54:40.128Z,51.40
2019-06-07T14:57:09.822Z,52.00
2019-06-07T14:59:39.475Z,52.70
2019-06-07T15:02:09.320Z,53.50
2019-06-07T15:04:42.643Z,52.70
2019-06-07T15:07:14.934Z,53.30
2019-06-07T15:09:44.765Z,53.70
2019-06-07T15:12:24.635Z,55.10
2019-06-07T15:14:46.195Z,54.10
2019-06-07T15:17:15.853Z,54.10
2019-06-07T15:19:45.589Z,55.00
2019-06-07T15:22:15.444Z,54.10
2019-06-07T15:24:45.180Z,54.00
2019-06-07T15:27:15.430Z,54.70
2019-06-07T15:29:45.143Z,54.80
2019-06-07T15:32:15.946Z,55.00
2019-06-07T15:34:45.691Z,55.50
2019-06-07T15:37:15.760Z,55.20
2019-06-07T15:39:45.541Z,55.00
2019-06-07T15:42:15.383Z,54.60
2019-06-07T15:44:45.033Z,55.30
2019-06-07T15:47:14.677Z,55.20
2019-06-07T15:49:44.668Z,55.60
2019-06-07T15:52:14.305Z,58.40
2019-06-07T15:54:44.039Z,56.50
2019-06-07T15:57:13.922Z,57.40
2019-06-07T15:59:43.628Z,56.50
2019-06-07T16:02:13.490Z,56.30
2019-06-07T16:04:43.174Z,56.30
2019-06-07T16:07:12.827Z,55.80
2019-06-07T16:09:42.861Z,55.80
2019-06-07T16:12:12.750Z,56.60
2019-06-07T16:14:43.469Z,55.60
2019-06-07T16:17:13.722Z,55.60
2019-06-07T16:19:46.532Z,56.30
2019-06-07T16:22:15.254Z,55.60
2019-06-07T16:24:44.963Z,55.70
2019-06-07T16:27:14.718Z,57.10
2019-06-07T16:29:44.877Z,56.90
2019-06-07T16:32:14.716Z,56.30
2019-06-07T16:34:46.056Z,56.80
2019-06-07T16:37:16.842Z,56.50
2019-06-07T16:39:46.781Z,56.90
2019-06-07T16:42:16.613Z,56.20
2019-06-07T16:44:47.057Z,57.90
2019-06-07T16:47:16.674Z,57.20
2019-06-07T16:49:46.702Z,56.70
2019-06-07T16:52:16.439Z,56.30
2019-06-07T16:54:47.602Z,56.40
2019-06-07T16:57:17.868Z,56.10
2019-06-07T16:59:50.493Z,56.90
2019-06-07T17:02:20.391Z,57.70
2019-06-07T17:04:50.380Z,56.90
2019-06-07T17:07:20.282Z,56.30
2019-06-07T17:09:50.175Z,56.40
2019-06-07T17:12:21.030Z,57.10
2019-06-07T17:14:51.138Z,57.90
2019-06-07T17:17:21.427Z,57.50
2019-06-07T17:19:51.331Z,56.90
2019-06-07T17:22:20.974Z,57.10
2019-06-07T17:24:50.844Z,58.00
2019-06-07T17:27:20.675Z,57.90
2019-06-07T17:29:50.300Z,57.60
2019-06-07T17:32:20.171Z,60.30
2019-06-07T17:34:51.181Z,60.10
2019-06-07T17:37:21.196Z,58.60
2019-06-07T17:39:51.180Z,58.50
2019-06-07T17:42:21.669Z,58.70
2019-06-07T17:44:51.617Z,58.50
2019-06-07T17:47:21.412Z,58.20
2019-06-07T17:49:52.155Z,59.00
2019-06-07T17:52:22.521Z,59.60
2019-06-07T17:54:52.474Z,60.10
2019-06-07T17:57:22.794Z,59.60
2019-06-07T17:59:54.404Z,60.80
2019-06-07T18:02:24.266Z,61.40
2019-06-07T18:04:54.646Z,61.60
2019-06-07T18:07:26.917Z,62.30
2019-06-07T18:09:57.364Z,62.10
2019-06-07T18:12:27.596Z,64.10
2019-06-07T18:14:57.454Z,64.40
2019-06-07T18:17:34.454Z,65.20
2019-06-07T18:19:59.527Z,65.20
2019-06-07T18:22:29.681Z,65.50
2019-06-07T18:24:59.473Z,65.90
2019-06-07T18:27:29.802Z,65.50
2019-06-07T18:29:59.668Z,65.20
2019-06-07T18:32:29.527Z,65.00
2019-06-07T18:35:00.452Z,64.80
2019-06-07T18:37:31.668Z,65.50
2019-06-07T18:40:01.479Z,65.70
2019-06-07T18:42:32.068Z,65.90
2019-06-07T18:45:09.483Z,66.90
2019-06-07T18:47:42.104Z,67.20
2019-06-07T18:50:15.379Z,67.00
2019-06-07T18:52:48.562Z,67.00
2019-06-07T18:55:22.095Z,67.70
2019-06-07T18:57:52.261Z,68.40
2019-06-07T19:00:24.299Z,69.50
2019-06-07T19:02:56.101Z,69.60
2019-06-07T19:05:27.086Z,69.90
2019-06-07T19:07:59.873Z,71.10
2019-06-07T19:10:31.737Z,71.40
2019-06-07T19:13:01.843Z,71.30
2019-06-07T19:15:34.060Z,72.30
2019-06-07T19:18:04.010Z,73.00
2019-06-07T19:20:33.666Z,73.10
2019-06-07T19:23:03.421Z,71.30
2019-06-07T19:25:33.132Z,70.90
2019-06-07T19:28:02.789Z,70.70
2019-06-07T19:30:32.458Z,70.70
2019-06-07T19:33:02.393Z,70.60
2019-06-07T19:35:32.086Z,71.50
2019-06-07T19:38:02.097Z,72.60
2019-06-07T19:40:32.076Z,73.90
2019-06-07T19:43:03.869Z,77.50
2019-06-07T19:45:35.166Z,79.80
2019-06-07T19:48:05.550Z,77.80
2019-06-07T19:50:35.531Z,76.60
2019-06-07T19:53:05.620Z,75.60
2019-06-07T19:55:36.509Z,74.90
2019-06-07T19:58:06.420Z,74.50
2019-06-07T20:00:36.359Z,76.50
2019-06-07T20:03:07.147Z,77.40
2019-06-07T20:05:36.824Z,76.60
2019-06-07T20:08:06.571Z,77.30
2019-06-07T20:10:37.132Z,77.90
2019-06-07T20:13:06.901Z,78.90
2019-06-07T20:15:37.399Z,78.00
2019-06-07T20:18:07.814Z,77.50
2019-06-07T20:20:37.438Z,77.10
2019-06-07T20:23:07.493Z,77.20
2019-06-07T20:25:37.227Z,77.00
2019-06-07T20:28:07.047Z,77.00
2019-06-07T20:30:36.898Z,77.90
2019-06-07T20:33:08.184Z,78.70
2019-06-07T20:35:38.240Z,80.20
2019-06-07T20:38:09.418Z,80.00
2019-06-07T20:40:39.363Z,79.30
2019-06-07T20:43:09.401Z,79.40
2019-06-07T20:45:39.468Z,80.90
2019-06-07T20:48:09.150Z,80.20
2019-06-07T20:50:38.829Z,79.40
2019-06-07T20:53:09.483Z,80.10
2019-06-07T20:55:39.382Z,80.70
2019-06-07T20:58:09.498Z,81.50
2019-06-07T21:00:39.411Z,81.00
2019-06-07T21:03:09.673Z,83.70
2019-06-07T21:05:39.469Z,86.70
2019-06-07T21:08:12.687Z,88.20
2019-06-07T21:10:40.403Z,85.80
2019-06-07T21:13:10.272Z,85.10
2019-06-07T21:15:48.982Z,85.00
2019-06-07T21:18:19.357Z,82.80
2019-06-07T21:20:45.071Z,83.90
2019-06-07T21:23:14.793Z,87.40
2019-06-07T21:25:44.933Z,87.60
2019-06-07T21:28:15.577Z,84.50
2019-06-07T21:30:45.548Z,83.10
2019-06-07T21:33:15.271Z,82.60
2019-06-07T21:35:44.968Z,84.10
2019-06-07T21:38:14.630Z,82.50
2019-06-07T21:40:44.695Z,84.20
2019-06-07T21:43:15.435Z,85.50
2019-06-07T21:45:45.140Z,81.30
2019-06-07T21:48:14.893Z,82.50
2019-06-07T21:50:45.745Z,81.70
2019-06-07T21:53:16.407Z,81.60
2019-06-07T21:55:46.243Z,80.70
2019-06-07T21:58:16.278Z,85.80
2019-06-07T22:01:04.701Z,86.80
2019-06-07T22:03:34.246Z,85.00
2019-06-07T22:06:07.632Z,84.30
2019-06-07T22:08:38.915Z,84.10
2019-06-07T22:11:10.254Z,84.20
2019-06-07T22:13:40.085Z,84.20
2019-06-07T22:16:23.350Z,85.00
2019-06-07T22:18:41.221Z,83.10
2019-06-07T22:21:10.872Z,83.30
2019-06-07T22:23:43.548Z,83.40
2019-06-07T22:26:13.265Z,84.80
2019-06-07T22:28:43.126Z,84.50
2019-06-07T22:31:12.860Z,86.90
2019-06-07T22:33:42.620Z,84.90
2019-06-07T22:36:13.226Z,84.60
2019-06-07T22:38:43.138Z,89.40
2019-06-07T22:41:13.982Z,90.30
2019-06-07T22:43:43.780Z,87.10
2019-06-07T22:46:13.526Z,90.80
2019-06-07T22:48:43.233Z,89.00
2019-06-07T22:51:14.520Z,86.50
2019-06-07T22:53:44.185Z,84.60
2019-06-07T22:56:16.065Z,83.90
2019-06-07T22:58:46.340Z,83.00
2019-06-07T23:01:17.096Z,83.30
2019-06-07T23:03:46.880Z,83.60
2019-06-07T23:06:16.967Z,83.00
2019-06-07T23:08:46.549Z,82.90
2019-06-07T23:11:17.227Z,83.00
2019-06-07T23:13:47.022Z,83.00
2019-06-07T23:16:17.764Z,83.90
2019-06-07T23:18:47.702Z,83.60
2019-06-07T23:21:17.925Z,84.90
2019-06-07T23:23:47.595Z,84.00
2019-06-07T23:26:18.289Z,84.30
2019-06-07T23:28:47.908Z,86.20
2019-06-07T23:31:18.551Z,85.90
2019-06-07T23:33:48.167Z,85.70
2019-06-07T23:36:19.261Z,85.40
2019-06-07T23:38:49.030Z,83.50
2019-06-07T23:41:20.430Z,85.50
2019-06-07T23:43:49.869Z,90.10
2019-06-07T23:46:21.591Z,91.30
2019-06-07T23:48:51.505Z,86.70
2019-06-07T23:51:22.020Z,86.30
2019-06-07T23:53:51.813Z,86.70
2019-06-07T23:56:22.266Z,86.40
2019-06-07T23:58:52.219Z,85.70
